sensor_id;sensor_type;location;lat;lon;timestamp;P1;durP1;ratioP1;P2;durP2;ratioP2
62572;SDS011;48626;51.678;5.806;2022-09-25T00:01:31;11.38;;;2.70;;
62572;SDS011;48626;51.678;5.806;2022-09-25T00:03:57;9.32;;;2.78;;
62572;SDS011;48626;51.678;5.806;2022-09-25T00:06:24;10.90;;;2.75;;
62572;SDS011;48626;51.678;5.806;2022-09-25T00:08:51;17.67;;;2.88;;
62572;SDS011;48626;51.678;5.806;2022-09-25T00:11:19;7.95;;;3.00;;
62572;SDS011;48626;51.678;5.806;2022-09-25T00:13:49;15.75;;;2.88;;
62572;SDS011;48626;51.678;5.806;2022-09-25T00:16:18;11.50;;;2.75;;
62572;SDS011;48626;51.678;5.806;2022-09-25T00:18:46;8.23;;;2.88;;
62572;SDS011;48626;51.678;5.806;2022-09-25T00:21:30;7.72;;;3.05;;
62572;SDS011;48626;51.678;5.806;2022-09-25T00:23:57;10.25;;;2.85;;
62572;SDS011;48626;51.678;5.806;2022-09-25T00:28:54;12.60;;;3.00;;
62572;SDS011;48626;51.678;5.806;2022-09-25T00:31:21;14.23;;;3.20;;
62572;SDS011;48626;51.678;5.806;2022-09-25T00:33:51;9.52;;;3.60;;
62572;SDS011;48626;51.678;5.806;2022-09-25T00:36:18;16.42;;;4.32;;
62572;SDS011;48626;51.678;5.806;2022-09-25T00:38:44;12.23;;;4.55;;
62572;SDS011;48626;51.678;5.806;2022-09-25T00:41:13;12.48;;;3.47;;
62572;SDS011;48626;51.678;5.806;2022-09-25T00:43:41;12.18;;;4.10;;
62572;SDS011;48626;51.678;5.806;2022-09-25T00:46:14;10.98;;;3.35;;
62572;SDS011;48626;51.678;5.806;2022-09-25T00:49:12;8.63;;;3.13;;
62572;SDS011;48626;51.678;5.806;2022-09-25T00:51:57;15.73;;;3.13;;
62572;SDS011;48626;51.678;5.806;2022-09-25T00:54:28;14.57;;;3.33;;
62572;SDS011;48626;51.678;5.806;2022-09-25T00:56:57;9.13;;;3.20;;
62572;SDS011;48626;51.678;5.806;2022-09-25T01:01:55;14.05;;;4.00;;
62572;SDS011;48626;51.678;5.806;2022-09-25T01:04:21;12.02;;;3.92;;
62572;SDS011;48626;51.678;5.806;2022-09-25T01:06:47;15.63;;;5.00;;
62572;SDS011;48626;51.678;5.806;2022-09-25T01:09:14;9.18;;;3.80;;
62572;SDS011;48626;51.678;5.806;2022-09-25T01:11:40;8.13;;;2.72;;
62572;SDS011;48626;51.678;5.806;2022-09-25T01:14:06;15.95;;;4.00;;
62572;SDS011;48626;51.678;5.806;2022-09-25T01:22:17;13.35;;;3.80;;
62572;SDS011;48626;51.678;5.806;2022-09-25T01:30:15;14.82;;;3.38;;
62572;SDS011;48626;51.678;5.806;2022-09-25T01:33:00;13.73;;;3.42;;
62572;SDS011;48626;51.678;5.806;2022-09-25T01:35:46;13.20;;;3.15;;
62572;SDS011;48626;51.678;5.806;2022-09-25T01:41:07;10.38;;;3.20;;
62572;SDS011;48626;51.678;5.806;2022-09-25T01:43:37;9.95;;;3.80;;
62572;SDS011;48626;51.678;5.806;2022-09-25T01:46:10;9.93;;;3.35;;
62572;SDS011;48626;51.678;5.806;2022-09-25T01:48:40;12.35;;;3.38;;
62572;SDS011;48626;51.678;5.806;2022-09-25T01:53:44;8.82;;;3.40;;
62572;SDS011;48626;51.678;5.806;2022-09-25T01:56:17;9.45;;;3.00;;
62572;SDS011;48626;51.678;5.806;2022-09-25T01:59:40;16.50;;;3.35;;
62572;SDS011;48626;51.678;5.806;2022-09-25T02:02:05;9.60;;;3.10;;
62572;SDS011;48626;51.678;5.806;2022-09-25T02:04:38;10.98;;;3.25;;
62572;SDS011;48626;51.678;5.806;2022-09-25T02:07:12;9.40;;;3.55;;
62572;SDS011;48626;51.678;5.806;2022-09-25T02:09:46;9.68;;;3.10;;
62572;SDS011;48626;51.678;5.806;2022-09-25T02:12:18;7.28;;;3.28;;
62572;SDS011;48626;51.678;5.806;2022-09-25T02:14:55;10.57;;;3.58;;
62572;SDS011;48626;51.678;5.806;2022-09-25T02:17:36;12.63;;;3.38;;
62572;SDS011;48626;51.678;5.806;2022-09-25T02:20:36;11.85;;;3.38;;
62572;SDS011;48626;51.678;5.806;2022-09-25T02:23:19;17.27;;;3.90;;
62572;SDS011;48626;51.678;5.806;2022-09-25T02:25:59;12.02;;;3.55;;
62572;SDS011;48626;51.678;5.806;2022-09-25T02:28:26;9.30;;;3.20;;
62572;SDS011;48626;51.678;5.806;2022-09-25T02:30:53;12.48;;;3.55;;
62572;SDS011;48626;51.678;5.806;2022-09-25T02:33:21;10.90;;;3.67;;
62572;SDS011;48626;51.678;5.806;2022-09-25T02:35:46;17.42;;;3.30;;
62572;SDS011;48626;51.678;5.806;2022-09-25T02:38:14;12.43;;;3.33;;
62572;SDS011;48626;51.678;5.806;2022-09-25T02:40:45;11.70;;;3.45;;
62572;SDS011;48626;51.678;5.806;2022-09-25T02:45:57;10.98;;;3.17;;
62572;SDS011;48626;51.678;5.806;2022-09-25T02:49:03;10.90;;;3.90;;
62572;SDS011;48626;51.678;5.806;2022-09-25T02:51:43;21.52;;;3.30;;
62572;SDS011;48626;51.678;5.806;2022-09-25T02:54:15;13.63;;;3.25;;
62572;SDS011;48626;51.678;5.806;2022-09-25T02:56:55;12.88;;;3.67;;
62572;SDS011;48626;51.678;5.806;2022-09-25T02:59:27;7.40;;;3.45;;
62572;SDS011;48626;51.678;5.806;2022-09-25T03:01:58;7.18;;;3.40;;
62572;SDS011;48626;51.678;5.806;2022-09-25T03:04:25;15.73;;;3.72;;
62572;SDS011;48626;51.678;5.806;2022-09-25T03:06:53;6.20;;;2.97;;
62572;SDS011;48626;51.678;5.806;2022-09-25T03:09:20;10.75;;;3.80;;
62572;SDS011;48626;51.678;5.806;2022-09-25T03:11:47;8.88;;;3.47;;
62572;SDS011;48626;51.678;5.806;2022-09-25T03:14:13;9.68;;;3.67;;
62572;SDS011;48626;51.678;5.806;2022-09-25T03:17:12;9.30;;;3.50;;
62572;SDS011;48626;51.678;5.806;2022-09-25T03:19:32;13.55;;;3.50;;
62572;SDS011;48626;51.678;5.806;2022-09-25T03:21:59;10.70;;;3.63;;
62572;SDS011;48626;51.678;5.806;2022-09-25T03:24:25;11.55;;;3.75;;
62572;SDS011;48626;51.678;5.806;2022-09-25T03:26:51;10.48;;;3.63;;
62572;SDS011;48626;51.678;5.806;2022-09-25T03:29:18;9.75;;;3.42;;
62572;SDS011;48626;51.678;5.806;2022-09-25T03:31:45;9.40;;;3.38;;
62572;SDS011;48626;51.678;5.806;2022-09-25T03:34:11;10.40;;;3.83;;
62572;SDS011;48626;51.678;5.806;2022-09-25T03:36:38;8.02;;;3.42;;
62572;SDS011;48626;51.678;5.806;2022-09-25T03:39:05;11.25;;;3.72;;
62572;SDS011;48626;51.678;5.806;2022-09-25T03:41:31;7.80;;;3.78;;
62572;SDS011;48626;51.678;5.806;2022-09-25T03:43:58;8.00;;;3.83;;
62572;SDS011;48626;51.678;5.806;2022-09-25T03:46:25;10.98;;;3.78;;
62572;SDS011;48626;51.678;5.806;2022-09-25T03:48:53;10.25;;;3.65;;
62572;SDS011;48626;51.678;5.806;2022-09-25T03:51:20;9.23;;;3.47;;
62572;SDS011;48626;51.678;5.806;2022-09-25T03:53:46;12.50;;;4.35;;
62572;SDS011;48626;51.678;5.806;2022-09-25T03:56:14;11.27;;;3.83;;
62572;SDS011;48626;51.678;5.806;2022-09-25T03:58:42;9.23;;;4.13;;
62572;SDS011;48626;51.678;5.806;2022-09-25T04:01:08;9.80;;;3.72;;
62572;SDS011;48626;51.678;5.806;2022-09-25T04:03:35;11.40;;;3.80;;
62572;SDS011;48626;51.678;5.806;2022-09-25T04:06:02;9.27;;;3.67;;
62572;SDS011;48626;51.678;5.806;2022-09-25T04:08:29;17.85;;;3.60;;
62572;SDS011;48626;51.678;5.806;2022-09-25T04:10:56;12.57;;;4.32;;
62572;SDS011;48626;51.678;5.806;2022-09-25T04:13:26;15.23;;;4.07;;
62572;SDS011;48626;51.678;5.806;2022-09-25T04:15:57;11.05;;;4.93;;
62572;SDS011;48626;51.678;5.806;2022-09-25T04:18:25;13.65;;;4.07;;
62572;SDS011;48626;51.678;5.806;2022-09-25T04:21:03;12.77;;;4.43;;
62572;SDS011;48626;51.678;5.806;2022-09-25T04:23:31;10.48;;;4.60;;
62572;SDS011;48626;51.678;5.806;2022-09-25T04:25:57;13.50;;;4.75;;
62572;SDS011;48626;51.678;5.806;2022-09-25T04:28:23;11.60;;;4.80;;
62572;SDS011;48626;51.678;5.806;2022-09-25T04:30:49;13.05;;;4.82;;
62572;SDS011;48626;51.678;5.806;2022-09-25T04:33:15;10.55;;;4.57;;
62572;SDS011;48626;51.678;5.806;2022-09-25T04:36:00;6.45;;;4.63;;
62572;SDS011;48626;51.678;5.806;2022-09-25T04:38:27;11.32;;;4.68;;
62572;SDS011;48626;51.678;5.806;2022-09-25T04:40:55;10.68;;;4.93;;
62572;SDS011;48626;51.678;5.806;2022-09-25T04:43:21;8.68;;;4.93;;
62572;SDS011;48626;51.678;5.806;2022-09-25T04:45:47;11.80;;;4.95;;
62572;SDS011;48626;51.678;5.806;2022-09-25T04:48:14;17.08;;;5.32;;
62572;SDS011;48626;51.678;5.806;2022-09-25T04:50:45;14.65;;;4.90;;
62572;SDS011;48626;51.678;5.806;2022-09-25T04:53:14;11.40;;;4.63;;
62572;SDS011;48626;51.678;5.806;2022-09-25T04:55:40;8.55;;;4.20;;
62572;SDS011;48626;51.678;5.806;2022-09-25T04:58:06;10.15;;;5.10;;
62572;SDS011;48626;51.678;5.806;2022-09-25T05:00:34;7.40;;;4.43;;
62572;SDS011;48626;51.678;5.806;2022-09-25T05:03:01;12.85;;;4.53;;
62572;SDS011;48626;51.678;5.806;2022-09-25T05:05:28;15.40;;;5.13;;
62572;SDS011;48626;51.678;5.806;2022-09-25T05:07:55;15.23;;;4.90;;
62572;SDS011;48626;51.678;5.806;2022-09-25T05:10:23;12.88;;;4.93;;
62572;SDS011;48626;51.678;5.806;2022-09-25T05:12:53;10.43;;;4.57;;
62572;SDS011;48626;51.678;5.806;2022-09-25T05:15:20;12.57;;;4.50;;
62572;SDS011;48626;51.678;5.806;2022-09-25T05:17:46;8.95;;;4.97;;
62572;SDS011;48626;51.678;5.806;2022-09-25T05:20:11;8.52;;;4.88;;
62572;SDS011;48626;51.678;5.806;2022-09-25T05:22:37;10.43;;;4.47;;
62572;SDS011;48626;51.678;5.806;2022-09-25T05:25:03;13.52;;;4.85;;
62572;SDS011;48626;51.678;5.806;2022-09-25T05:27:31;8.90;;;4.43;;
62572;SDS011;48626;51.678;5.806;2022-09-25T05:29:58;9.85;;;4.45;;
62572;SDS011;48626;51.678;5.806;2022-09-25T05:32:24;9.13;;;4.22;;
62572;SDS011;48626;51.678;5.806;2022-09-25T05:34:50;8.18;;;4.18;;
62572;SDS011;48626;51.678;5.806;2022-09-25T05:37:15;14.05;;;4.93;;
62572;SDS011;48626;51.678;5.806;2022-09-25T05:39:41;11.10;;;4.75;;
62572;SDS011;48626;51.678;5.806;2022-09-25T05:42:07;10.38;;;4.60;;
62572;SDS011;48626;51.678;5.806;2022-09-25T05:44:33;7.88;;;4.65;;
62572;SDS011;48626;51.678;5.806;2022-09-25T05:46:58;12.45;;;4.68;;
62572;SDS011;48626;51.678;5.806;2022-09-25T05:49:24;7.65;;;4.28;;
62572;SDS011;48626;51.678;5.806;2022-09-25T05:51:50;8.70;;;4.38;;
62572;SDS011;48626;51.678;5.806;2022-09-25T05:54:15;9.18;;;4.70;;
62572;SDS011;48626;51.678;5.806;2022-09-25T05:56:41;8.50;;;4.53;;
62572;SDS011;48626;51.678;5.806;2022-09-25T05:59:06;10.32;;;4.55;;
62572;SDS011;48626;51.678;5.806;2022-09-25T06:01:32;12.75;;;5.10;;
62572;SDS011;48626;51.678;5.806;2022-09-25T06:03:57;11.65;;;4.70;;
62572;SDS011;48626;51.678;5.806;2022-09-25T06:06:23;13.90;;;4.60;;
62572;SDS011;48626;51.678;5.806;2022-09-25T06:08:49;8.90;;;4.40;;
62572;SDS011;48626;51.678;5.806;2022-09-25T06:11:17;9.23;;;4.15;;
62572;SDS011;48626;51.678;5.806;2022-09-25T06:13:42;6.78;;;4.50;;
62572;SDS011;48626;51.678;5.806;2022-09-25T06:16:13;14.18;;;4.68;;
62572;SDS011;48626;51.678;5.806;2022-09-25T06:18:43;11.50;;;4.82;;
62572;SDS011;48626;51.678;5.806;2022-09-25T06:21:09;6.68;;;4.50;;
62572;SDS011;48626;51.678;5.806;2022-09-25T06:23:35;10.82;;;4.65;;
62572;SDS011;48626;51.678;5.806;2022-09-25T06:26:01;11.45;;;4.85;;
62572;SDS011;48626;51.678;5.806;2022-09-25T06:28:28;7.75;;;4.78;;
62572;SDS011;48626;51.678;5.806;2022-09-25T06:30:55;11.10;;;5.00;;
62572;SDS011;48626;51.678;5.806;2022-09-25T06:33:23;8.77;;;4.55;;
62572;SDS011;48626;51.678;5.806;2022-09-25T06:35:49;7.85;;;4.28;;
62572;SDS011;48626;51.678;5.806;2022-09-25T06:38:15;8.00;;;5.10;;
62572;SDS011;48626;51.678;5.806;2022-09-25T06:40:41;6.32;;;4.40;;
62572;SDS011;48626;51.678;5.806;2022-09-25T06:43:12;7.32;;;4.50;;
62572;SDS011;48626;51.678;5.806;2022-09-25T06:45:39;13.30;;;4.43;;
62572;SDS011;48626;51.678;5.806;2022-09-25T06:48:07;8.85;;;4.43;;
62572;SDS011;48626;51.678;5.806;2022-09-25T06:50:47;11.90;;;4.50;;
62572;SDS011;48626;51.678;5.806;2022-09-25T06:53:15;12.23;;;4.88;;
62572;SDS011;48626;51.678;5.806;2022-09-25T06:55:42;10.30;;;4.38;;
62572;SDS011;48626;51.678;5.806;2022-09-25T06:58:12;9.27;;;4.55;;
62572;SDS011;48626;51.678;5.806;2022-09-25T07:00:40;9.02;;;4.07;;
62572;SDS011;48626;51.678;5.806;2022-09-25T07:03:09;9.05;;;4.57;;
62572;SDS011;48626;51.678;5.806;2022-09-25T07:05:53;10.90;;;4.82;;
62572;SDS011;48626;51.678;5.806;2022-09-25T07:08:19;10.50;;;4.18;;
62572;SDS011;48626;51.678;5.806;2022-09-25T07:10:48;10.38;;;4.63;;
62572;SDS011;48626;51.678;5.806;2022-09-25T07:13:16;11.10;;;5.10;;
62572;SDS011;48626;51.678;5.806;2022-09-25T07:15:42;14.65;;;5.00;;
62572;SDS011;48626;51.678;5.806;2022-09-25T07:18:14;12.52;;;4.70;;
62572;SDS011;48626;51.678;5.806;2022-09-25T07:20:39;10.43;;;4.95;;
62572;SDS011;48626;51.678;5.806;2022-09-25T07:23:05;11.20;;;5.28;;
62572;SDS011;48626;51.678;5.806;2022-09-25T07:25:31;14.02;;;5.63;;
62572;SDS011;48626;51.678;5.806;2022-09-25T07:27:57;12.52;;;5.85;;
62572;SDS011;48626;51.678;5.806;2022-09-25T07:30:28;11.23;;;5.57;;
62572;SDS011;48626;51.678;5.806;2022-09-25T07:32:54;9.93;;;4.97;;
62572;SDS011;48626;51.678;5.806;2022-09-25T07:35:20;13.43;;;5.30;;
62572;SDS011;48626;51.678;5.806;2022-09-25T07:37:46;10.48;;;5.45;;
62572;SDS011;48626;51.678;5.806;2022-09-25T07:40:11;11.25;;;5.68;;
62572;SDS011;48626;51.678;5.806;2022-09-25T07:42:38;11.98;;;5.65;;
62572;SDS011;48626;51.678;5.806;2022-09-25T07:45:05;13.40;;;6.25;;
62572;SDS011;48626;51.678;5.806;2022-09-25T07:47:31;11.50;;;5.68;;
62572;SDS011;48626;51.678;5.806;2022-09-25T07:49:57;14.13;;;6.32;;
62572;SDS011;48626;51.678;5.806;2022-09-25T07:52:23;10.00;;;5.88;;
62572;SDS011;48626;51.678;5.806;2022-09-25T07:54:49;11.13;;;5.20;;
62572;SDS011;48626;51.678;5.806;2022-09-25T07:57:14;10.50;;;5.47;;
62572;SDS011;48626;51.678;5.806;2022-09-25T07:59:44;12.63;;;6.20;;
62572;SDS011;48626;51.678;5.806;2022-09-25T08:02:10;9.10;;;5.25;;
62572;SDS011;48626;51.678;5.806;2022-09-25T08:04:36;10.48;;;5.20;;
62572;SDS011;48626;51.678;5.806;2022-09-25T08:07:02;14.57;;;5.57;;
62572;SDS011;48626;51.678;5.806;2022-09-25T08:09:27;9.02;;;5.28;;
62572;SDS011;48626;51.678;5.806;2022-09-25T08:11:53;11.45;;;5.57;;
62572;SDS011;48626;51.678;5.806;2022-09-25T08:14:18;10.57;;;5.38;;
62572;SDS011;48626;51.678;5.806;2022-09-25T08:16:44;8.85;;;4.90;;
62572;SDS011;48626;51.678;5.806;2022-09-25T08:19:11;11.77;;;5.32;;
62572;SDS011;48626;51.678;5.806;2022-09-25T08:21:37;14.10;;;5.53;;
62572;SDS011;48626;51.678;5.806;2022-09-25T08:24:03;10.30;;;5.07;;
62572;SDS011;48626;51.678;5.806;2022-09-25T08:26:29;7.60;;;5.25;;
62572;SDS011;48626;51.678;5.806;2022-09-25T08:28:56;8.10;;;4.88;;
62572;SDS011;48626;51.678;5.806;2022-09-25T08:31:23;13.25;;;5.60;;
62572;SDS011;48626;51.678;5.806;2022-09-25T08:33:49;10.80;;;4.82;;
62572;SDS011;48626;51.678;5.806;2022-09-25T08:36:14;10.45;;;5.32;;
62572;SDS011;48626;51.678;5.806;2022-09-25T08:38:41;9.65;;;4.78;;
62572;SDS011;48626;51.678;5.806;2022-09-25T08:43:45;9.35;;;4.78;;
62572;SDS011;48626;51.678;5.806;2022-09-25T08:46:20;11.90;;;4.28;;
62572;SDS011;48626;51.678;5.806;2022-09-25T08:49:09;16.23;;;4.57;;
62572;SDS011;48626;51.678;5.806;2022-09-25T08:51:37;13.27;;;4.05;;
62572;SDS011;48626;51.678;5.806;2022-09-25T08:54:22;15.75;;;4.50;;
62572;SDS011;48626;51.678;5.806;2022-09-25T08:56:54;11.57;;;4.05;;
62572;SDS011;48626;51.678;5.806;2022-09-25T08:59:36;10.80;;;4.28;;
62572;SDS011;48626;51.678;5.806;2022-09-25T09:02:12;9.57;;;3.90;;
62572;SDS011;48626;51.678;5.806;2022-09-25T09:04:42;6.60;;;3.15;;
62572;SDS011;48626;51.678;5.806;2022-09-25T09:13:53;11.15;;;3.50;;
62572;SDS011;48626;51.678;5.806;2022-09-25T09:18:35;7.30;;;3.25;;
62572;SDS011;48626;51.678;5.806;2022-09-25T09:24:02;8.55;;;2.92;;
62572;SDS011;48626;51.678;5.806;2022-09-25T09:27:15;12.00;;;3.10;;
62572;SDS011;48626;51.678;5.806;2022-09-25T09:45:58;11.93;;;2.63;;
62572;SDS011;48626;51.678;5.806;2022-09-25T09:49:08;11.63;;;2.28;;
62572;SDS011;48626;51.678;5.806;2022-09-25T09:52:32;8.15;;;1.88;;
62572;SDS011;48626;51.678;5.806;2022-09-25T09:54:59;5.28;;;1.80;;
62572;SDS011;48626;51.678;5.806;2022-09-25T09:57:48;2.95;;;1.58;;
62572;SDS011;48626;51.678;5.806;2022-09-25T10:00:18;12.65;;;2.92;;
62572;SDS011;48626;51.678;5.806;2022-09-25T10:02:58;8.77;;;1.83;;
62572;SDS011;48626;51.678;5.806;2022-09-25T10:05:47;6.93;;;1.75;;
62572;SDS011;48626;51.678;5.806;2022-09-25T10:08:15;7.32;;;1.80;;
62572;SDS011;48626;51.678;5.806;2022-09-25T10:10:45;3.63;;;1.73;;
62572;SDS011;48626;51.678;5.806;2022-09-25T10:13:18;4.75;;;1.65;;
62572;SDS011;48626;51.678;5.806;2022-09-25T10:16:32;6.65;;;1.90;;
62572;SDS011;48626;51.678;5.806;2022-09-25T10:21:13;4.97;;;1.70;;
62572;SDS011;48626;51.678;5.806;2022-09-25T10:26:30;5.90;;;1.65;;
62572;SDS011;48626;51.678;5.806;2022-09-25T10:28:57;5.47;;;1.50;;
62572;SDS011;48626;51.678;5.806;2022-09-25T10:31:26;7.25;;;2.10;;
62572;SDS011;48626;51.678;5.806;2022-09-25T10:33:58;5.20;;;1.80;;
62572;SDS011;48626;51.678;5.806;2022-09-25T10:36:30;3.05;;;1.33;;
62572;SDS011;48626;51.678;5.806;2022-09-25T10:38:58;6.00;;;1.77;;
62572;SDS011;48626;51.678;5.806;2022-09-25T10:41:26;7.47;;;1.90;;
62572;SDS011;48626;51.678;5.806;2022-09-25T10:43:53;6.05;;;1.70;;
62572;SDS011;48626;51.678;5.806;2022-09-25T10:46:30;5.30;;;1.90;;
62572;SDS011;48626;51.678;5.806;2022-09-25T10:49:20;11.73;;;1.65;;
62572;SDS011;48626;51.678;5.806;2022-09-25T10:52:12;4.80;;;1.50;;
62572;SDS011;48626;51.678;5.806;2022-09-25T10:54:39;5.57;;;2.00;;
62572;SDS011;48626;51.678;5.806;2022-09-25T10:59:49;2.90;;;1.50;;
62572;SDS011;48626;51.678;5.806;2022-09-25T11:02:26;3.92;;;1.60;;
62572;SDS011;48626;51.678;5.806;2022-09-25T11:05:05;3.58;;;1.90;;
62572;SDS011;48626;51.678;5.806;2022-09-25T11:07:39;6.32;;;1.88;;
62572;SDS011;48626;51.678;5.806;2022-09-25T11:10:26;6.95;;;2.13;;
62572;SDS011;48626;51.678;5.806;2022-09-25T11:13:18;3.95;;;1.55;;
62572;SDS011;48626;51.678;5.806;2022-09-25T11:15:49;5.88;;;2.00;;
62572;SDS011;48626;51.678;5.806;2022-09-25T11:26:56;6.28;;;2.10;;
62572;SDS011;48626;51.678;5.806;2022-09-25T11:32:28;4.55;;;2.10;;
62572;SDS011;48626;51.678;5.806;2022-09-25T11:41:09;4.60;;;1.77;;
62572;SDS011;48626;51.678;5.806;2022-09-25T11:49:28;7.53;;;2.10;;
62572;SDS011;48626;51.678;5.806;2022-09-25T12:00:00;6.47;;;2.67;;
62572;SDS011;48626;51.678;5.806;2022-09-25T12:10:57;3.70;;;1.70;;
62572;SDS011;48626;51.678;5.806;2022-09-25T12:19:30;8.52;;;2.08;;
62572;SDS011;48626;51.678;5.806;2022-09-25T12:39:45;3.90;;;1.38;;
62572;SDS011;48626;51.678;5.806;2022-09-25T12:42:17;2.55;;;1.38;;
62572;SDS011;48626;51.678;5.806;2022-09-25T12:45:04;8.30;;;1.77;;
62572;SDS011;48626;51.678;5.806;2022-09-25T12:47:44;5.45;;;1.60;;
62572;SDS011;48626;51.678;5.806;2022-09-25T12:50:33;4.25;;;1.60;;
62572;SDS011;48626;51.678;5.806;2022-09-25T13:07:14;7.35;;;1.90;;
62572;SDS011;48626;51.678;5.806;2022-09-25T13:10:32;7.68;;;1.88;;
62572;SDS011;48626;51.678;5.806;2022-09-25T13:13:04;4.65;;;1.95;;
62572;SDS011;48626;51.678;5.806;2022-09-25T13:15:37;4.10;;;1.75;;
62572;SDS011;48626;51.678;5.806;2022-09-25T13:18:04;4.70;;;1.55;;
62572;SDS011;48626;51.678;5.806;2022-09-25T13:23:08;4.13;;;1.70;;
62572;SDS011;48626;51.678;5.806;2022-09-25T13:26:07;3.88;;;1.80;;
62572;SDS011;48626;51.678;5.806;2022-09-25T13:28:36;2.60;;;1.38;;
62572;SDS011;48626;51.678;5.806;2022-09-25T13:31:12;8.05;;;2.38;;
62572;SDS011;48626;51.678;5.806;2022-09-25T13:38:48;5.85;;;1.70;;
62572;SDS011;48626;51.678;5.806;2022-09-25T13:52:28;3.85;;;1.63;;
62572;SDS011;48626;51.678;5.806;2022-09-25T14:02:53;3.00;;;1.50;;
62572;SDS011;48626;51.678;5.806;2022-09-25T14:05:27;4.93;;;1.90;;
62572;SDS011;48626;51.678;5.806;2022-09-25T14:08:00;2.58;;;1.45;;
62572;SDS011;48626;51.678;5.806;2022-09-25T14:10:48;4.68;;;1.40;;
62572;SDS011;48626;51.678;5.806;2022-09-25T14:13:16;3.20;;;1.55;;
62572;SDS011;48626;51.678;5.806;2022-09-25T14:15:49;4.28;;;1.52;;
62572;SDS011;48626;51.678;5.806;2022-09-25T14:18:29;4.75;;;1.83;;
62572;SDS011;48626;51.678;5.806;2022-09-25T14:21:03;6.03;;;1.58;;
62572;SDS011;48626;51.678;5.806;2022-09-25T14:23:31;5.05;;;1.60;;
62572;SDS011;48626;51.678;5.806;2022-09-25T14:26:01;4.03;;;1.65;;
62572;SDS011;48626;51.678;5.806;2022-09-25T14:28:31;3.85;;;1.45;;
62572;SDS011;48626;51.678;5.806;2022-09-25T14:36:44;5.45;;;1.60;;
62572;SDS011;48626;51.678;5.806;2022-09-25T14:39:23;4.68;;;1.70;;
62572;SDS011;48626;51.678;5.806;2022-09-25T14:47:46;6.03;;;1.38;;
62572;SDS011;48626;51.678;5.806;2022-09-25T14:50:26;3.90;;;1.83;;
62572;SDS011;48626;51.678;5.806;2022-09-25T14:52:57;6.10;;;1.70;;
62572;SDS011;48626;51.678;5.806;2022-09-25T14:55:33;8.25;;;2.67;;
62572;SDS011;48626;51.678;5.806;2022-09-25T14:58:01;8.48;;;2.10;;
62572;SDS011;48626;51.678;5.806;2022-09-25T15:00:33;5.68;;;2.00;;
62572;SDS011;48626;51.678;5.806;2022-09-25T15:02:59;7.25;;;2.10;;
62572;SDS011;48626;51.678;5.806;2022-09-25T15:05:30;4.70;;;2.15;;
62572;SDS011;48626;51.678;5.806;2022-09-25T15:07:58;4.68;;;1.70;;
62572;SDS011;48626;51.678;5.806;2022-09-25T15:10:33;4.38;;;1.80;;
62572;SDS011;48626;51.678;5.806;2022-09-25T15:13:08;9.73;;;1.90;;
62572;SDS011;48626;51.678;5.806;2022-09-25T15:16:01;4.20;;;1.83;;
62572;SDS011;48626;51.678;5.806;2022-09-25T15:18:52;7.00;;;1.50;;
62572;SDS011;48626;51.678;5.806;2022-09-25T15:21:23;3.20;;;1.60;;
62572;SDS011;48626;51.678;5.806;2022-09-25T15:23:56;5.07;;;1.70;;
62572;SDS011;48626;51.678;5.806;2022-09-25T15:26:27;6.93;;;1.88;;
62572;SDS011;48626;51.678;5.806;2022-09-25T15:28:54;4.45;;;1.58;;
62572;SDS011;48626;51.678;5.806;2022-09-25T15:31:20;5.07;;;1.83;;
62572;SDS011;48626;51.678;5.806;2022-09-25T15:36:35;4.70;;;1.80;;
62572;SDS011;48626;51.678;5.806;2022-09-25T15:39:07;4.70;;;1.50;;
62572;SDS011;48626;51.678;5.806;2022-09-25T15:41:38;5.80;;;1.70;;
62572;SDS011;48626;51.678;5.806;2022-09-25T15:44:21;5.68;;;2.03;;
62572;SDS011;48626;51.678;5.806;2022-09-25T15:46:52;3.70;;;1.67;;
62572;SDS011;48626;51.678;5.806;2022-09-25T15:49:25;3.83;;;1.77;;
62572;SDS011;48626;51.678;5.806;2022-09-25T15:51:57;8.82;;;2.33;;
62572;SDS011;48626;51.678;5.806;2022-09-25T15:57:11;4.20;;;1.85;;
62572;SDS011;48626;51.678;5.806;2022-09-25T15:59:43;3.60;;;2.03;;
62572;SDS011;48626;51.678;5.806;2022-09-25T16:02:30;5.13;;;2.10;;
62572;SDS011;48626;51.678;5.806;2022-09-25T16:05:31;9.20;;;2.95;;
62572;SDS011;48626;51.678;5.806;2022-09-25T16:11:02;5.88;;;1.95;;
62572;SDS011;48626;51.678;5.806;2022-09-25T16:13:46;4.28;;;1.98;;
62572;SDS011;48626;51.678;5.806;2022-09-25T16:16:20;4.63;;;2.00;;
62572;SDS011;48626;51.678;5.806;2022-09-25T16:19:36;5.10;;;2.35;;
62572;SDS011;48626;51.678;5.806;2022-09-25T16:21:45;4.78;;;2.15;;
62572;SDS011;48626;51.678;5.806;2022-09-25T16:24:19;4.38;;;1.90;;
62572;SDS011;48626;51.678;5.806;2022-09-25T16:26:51;5.43;;;2.05;;
62572;SDS011;48626;51.678;5.806;2022-09-25T16:29:26;4.93;;;2.00;;
62572;SDS011;48626;51.678;5.806;2022-09-25T16:32:04;5.35;;;2.63;;
62572;SDS011;48626;51.678;5.806;2022-09-25T16:34:34;4.90;;;2.33;;
62572;SDS011;48626;51.678;5.806;2022-09-25T16:37:01;5.93;;;2.60;;
62572;SDS011;48626;51.678;5.806;2022-09-25T16:39:33;3.53;;;2.20;;
62572;SDS011;48626;51.678;5.806;2022-09-25T16:44:52;4.50;;;2.05;;
62572;SDS011;48626;51.678;5.806;2022-09-25T16:47:38;5.57;;;2.10;;
62572;SDS011;48626;51.678;5.806;2022-09-25T16:50:07;5.00;;;2.30;;
62572;SDS011;48626;51.678;5.806;2022-09-25T16:52:36;5.93;;;2.28;;
62572;SDS011;48626;51.678;5.806;2022-09-25T16:55:05;6.22;;;2.60;;
62572;SDS011;48626;51.678;5.806;2022-09-25T16:57:34;6.13;;;2.30;;
62572;SDS011;48626;51.678;5.806;2022-09-25T17:00:00;8.68;;;2.53;;
62572;SDS011;48626;51.678;5.806;2022-09-25T17:02:34;4.40;;;1.88;;
62572;SDS011;48626;51.678;5.806;2022-09-25T17:05:06;4.03;;;2.03;;
62572;SDS011;48626;51.678;5.806;2022-09-25T17:07:38;2.38;;;1.77;;
62572;SDS011;48626;51.678;5.806;2022-09-25T17:10:04;2.42;;;1.70;;
62572;SDS011;48626;51.678;5.806;2022-09-25T17:12:30;2.55;;;1.70;;
62572;SDS011;48626;51.678;5.806;2022-09-25T17:14:56;3.05;;;1.88;;
62572;SDS011;48626;51.678;5.806;2022-09-25T17:17:22;4.57;;;1.90;;
62572;SDS011;48626;51.678;5.806;2022-09-25T17:19:48;2.97;;;1.90;;
62572;SDS011;48626;51.678;5.806;2022-09-25T17:22:14;3.70;;;1.88;;
62572;SDS011;48626;51.678;5.806;2022-09-25T17:24:40;5.43;;;2.08;;
62572;SDS011;48626;51.678;5.806;2022-09-25T17:27:13;5.95;;;2.17;;
62572;SDS011;48626;51.678;5.806;2022-09-25T17:29:40;5.55;;;2.10;;
62572;SDS011;48626;51.678;5.806;2022-09-25T17:32:10;5.45;;;2.20;;
62572;SDS011;48626;51.678;5.806;2022-09-25T17:34:38;4.80;;;2.10;;
62572;SDS011;48626;51.678;5.806;2022-09-25T17:37:04;4.45;;;2.05;;
62572;SDS011;48626;51.678;5.806;2022-09-25T17:39:30;4.70;;;2.10;;
62572;SDS011;48626;51.678;5.806;2022-09-25T17:41:55;4.40;;;2.20;;
62572;SDS011;48626;51.678;5.806;2022-09-25T17:44:21;6.97;;;2.17;;
62572;SDS011;48626;51.678;5.806;2022-09-25T17:46:48;3.97;;;2.25;;
62572;SDS011;48626;51.678;5.806;2022-09-25T17:49:14;5.40;;;2.40;;
62572;SDS011;48626;51.678;5.806;2022-09-25T17:51:40;7.55;;;2.42;;
62572;SDS011;48626;51.678;5.806;2022-09-25T17:54:06;7.93;;;2.45;;
62572;SDS011;48626;51.678;5.806;2022-09-25T17:56:33;5.20;;;2.38;;
62572;SDS011;48626;51.678;5.806;2022-09-25T17:58:59;4.93;;;2.00;;
62572;SDS011;48626;51.678;5.806;2022-09-25T18:01:27;3.95;;;2.10;;
62572;SDS011;48626;51.678;5.806;2022-09-25T18:03:55;19.92;;;7.38;;
62572;SDS011;48626;51.678;5.806;2022-09-25T18:06:23;24.77;;;7.13;;
62572;SDS011;48626;51.678;5.806;2022-09-25T18:08:50;15.35;;;4.95;;
62572;SDS011;48626;51.678;5.806;2022-09-25T18:11:18;13.13;;;4.95;;
62572;SDS011;48626;51.678;5.806;2022-09-25T18:13:44;14.63;;;5.30;;
62572;SDS011;48626;51.678;5.806;2022-09-25T18:16:17;10.50;;;4.00;;
62572;SDS011;48626;51.678;5.806;2022-09-25T18:18:44;6.25;;;3.33;;